Middleton, WI (53562)

2:56 AM CST on February 09, 2016 (GMT -0600)
Middleton | | Change Station
CLOSE
Current Station
Airport
Location: Middleton,
Elevation: 928 ft
Nearby Weather Stations

Elev 928 ft 43.12 °N, 89.53 °W | Updated 21 minutes ago

Overcast
Overcast
14 °F
Feels Like 0 °F
N
14
Wind Variable Wind from NW
Gusts 21 mph

Today
High -- | Low -- °F
--% Chance of Precip.
Yesterday
High -- | Low -- °F
Precip. -- in
Pressure 29.80 in
Visibility 5.0 miles
Clouds Mostly Cloudy 1900 ft
Overcast 2900 ft
Windchill 0 °F
Dew Point 10 °F
Humidity 82%
Rainfall 0.00 in
Snow Depth Not available.
7:04 AM 5:20 PM
New Moon, 1% visible
METAR KC29 090835Z AUTO 32012G18KT 5SM BKN019 OVC029 M10/M12 A2980 RMK AO1 T10971122
Pressure 29.80 in
Visibility 5.0 miles
Clouds Mostly Cloudy 1900 ft
Overcast 2900 ft
Windchill 0 °F
Dew Point 10 °F
Humidity 82%
Rainfall 0.00 in
Snow Depth Not available.
7:04 AM 5:20 PM
New Moon, 1% visible
METAR KC29 090835Z AUTO 32012G18KT 5SM BKN019 OVC029 M10/M12 A2980 RMK AO1 T10971122

10-Day Weather Forecast

Almanac

Astronomy

Feb. 09, 2016 Rise Set
Actual Time
Civil Twilight
Nautical Twilight
Astronomical Twilight
Moon
Length of Visible Light
Length of Day
Tomorrow will be .
, % of the Moon is Illuminated

Today's Extremes

State Highs State Lows

Community

WunderPhotos

Upload Photos

1,891,571 photos uploaded!

WunderBlog® & News

Nearby

Air Quality

  Air Quality AQ Index Pollutant
Not available.

Snow Depth

Station Depth Elevation

Earthquake Activity

City Distance Mag. Time & Date
Minimum magnitude displayed is 2.5.

Coastal Water Temperatures

Place Temperature

Stations

Nearby Weather Stations

Station Location Temp. Windchill Dew Point Humidity Wind Precip. Elev Updated Type
                   

Watches & Warnings

There are currently no watches in effect.